Time;durP1;ratioP1;P1;durP2;ratioP2;P2;SDS_P1;SDS_P2;PMS_P1;PMS_P2;Temp;Humidity;BMP_temperature;BMP_pressure;BME280_temperature;BME280_humidity;BME280_pressure;Samples;Min_cycle;Max_cycle;Signal;HPM_P1;HPM_P2
2021/05/03 00:01:55;;;;;;;;;;;;;;;6.20;65.26;101432.00;6262073;28;20088;-73
2021/05/03 00:04:58;;;;;;;;;;;;;;;6.11;65.86;101435.72;6262292;28;19917;-72
2021/05/03 00:08:04;;;;;;;;;;;;;;;6.40;64.70;101434.28;6262101;28;19924;-74
2021/05/03 00:11:06;;;;;;;;;;;;;;;6.70;63.39;101430.78;6262690;28;19917;-72
2021/05/03 00:14:09;;;;;;;;;;;;;;;6.71;63.15;101421.59;6262988;28;19960;-72
2021/05/03 00:17:12;;;;;;;;;;;;;;;6.52;64.20;101427.47;6262537;28;19924;-72
2021/05/03 00:20:17;;;;;;;;;;;;;;;6.76;63.17;101419.19;6262549;28;19936;-73
2021/05/03 00:23:25;;;;;;;;;;;;;;;6.74;63.39;101426.69;6262461;28;20057;-71
2021/05/03 00:26:28;;;;;;;;;;;;;;;6.34;65.74;101424.16;6261448;28;19991;-72
2021/05/03 00:29:30;;;;;;;;;;;;;;;6.18;66.22;101420.50;6261494;28;19916;-73
2021/05/03 00:32:34;;;;;;;;;;;;;;;6.17;66.70;101424.22;6262555;28;19952;-73
2021/05/03 00:35:36;;;;;;;;;;;;;;;6.49;65.95;101416.97;6261577;28;19963;-72
2021/05/03 00:38:40;;;;;;;;;;;;;;;6.83;63.91;101409.34;6262726;28;19916;-72
2021/05/03 00:41:43;;;;;;;;;;;;;;;6.88;63.72;101415.09;6261448;28;19976;-73
2021/05/03 00:44:45;;;;;;;;;;;;;;;6.79;64.08;101418.84;6261202;28;19952;-73
2021/05/03 00:47:48;;;;;;;;;;;;;;;6.66;64.70;101407.72;6262207;28;20163;-72
2021/05/03 00:50:51;;;;;;;;;;;;;;;6.30;67.01;101408.25;6265390;28;19940;-72
2021/05/03 00:53:55;;;;;;;;;;;;;;;6.21;67.67;101411.16;6266532;28;20212;-72
2021/05/03 00:56:58;;;;;;;;;;;;;;;6.18;67.93;101397.97;6265608;28;20081;-73
2021/05/03 01:00:03;;;;;;;;;;;;;;;6.49;66.50;101395.28;6267000;28;19955;-73
2021/05/03 01:03:08;;;;;;;;;;;;;;;6.29;67.73;101393.00;6263742;28;19923;-72
2021/05/03 01:06:11;;;;;;;;;;;;;;;6.23;68.06;101385.59;6265534;28;19955;-72
2021/05/03 01:09:15;;;;;;;;;;;;;;;6.40;67.19;101385.50;6266342;28;19924;-71
2021/05/03 01:12:18;;;;;;;;;;;;;;;6.38;67.31;101384.84;6266325;28;19917;-72
2021/05/03 01:15:23;;;;;;;;;;;;;;;6.53;66.06;101393.91;6266353;28;19917;-72
2021/05/03 01:18:29;;;;;;;;;;;;;;;6.52;65.73;101389.53;6265503;28;19917;-72
2021/05/03 01:21:32;;;;;;;;;;;;;;;6.62;64.96;101379.28;6264970;28;20016;-73
2021/05/03 01:24:35;;;;;;;;;;;;;;;6.52;65.67;101384.09;6264925;28;19955;-72
2021/05/03 01:27:38;;;;;;;;;;;;;;;6.50;65.88;101380.69;6266778;28;19939;-72
2021/05/03 01:30:43;;;;;;;;;;;;;;;6.38;65.96;101376.69;6265915;28;20242;-73
2021/05/03 01:33:45;;;;;;;;;;;;;;;6.50;65.35;101380.69;6266708;28;19971;-72
2021/05/03 01:36:49;;;;;;;;;;;;;;;6.43;65.69;101375.16;6264725;28;20187;-71
2021/05/03 01:39:52;;;;;;;;;;;;;;;6.64;64.76;101377.25;6265692;28;19962;-72
2021/05/03 01:42:56;;;;;;;1.40;1.40;;;;;;;6.66;64.80;101380.63;6264142;28;20517;-72
2021/05/03 01:45:59;;;;;;;2.30;1.77;;;;;;;6.65;64.39;101378.94;6264878;28;20192;-72
2021/05/03 01:49:05;;;;;;;3.47;1.70;;;;;;;6.40;65.50;101374.66;6264992;28;20187;-72
2021/05/03 01:52:11;;;;;;;3.63;1.40;;;;;;;6.32;65.62;101373.69;6263965;28;20242;-72
2021/05/03 01:55:15;;;;;;;1.63;1.57;;;;;;;6.16;65.27;101337.69;6264740;28;20243;-72
2021/05/03 01:58:18;;;;;;;3.13;2.00;;;;;;;6.42;64.94;101368.03;6264699;28;20276;-71
2021/05/03 02:01:21;;;;;;;2.00;1.83;;;;;;;6.36;65.55;101362.50;6262671;28;20204;-72
2021/05/03 02:04:24;;;;;;;2.53;1.53;;;;;;;6.13;65.16;101336.19;6263781;28;20239;-72
2021/05/03 02:07:29;;;;;;;1.60;1.60;;;;;;;6.18;65.89;101366.31;6264822;28;20196;-71
2021/05/03 02:10:33;;;;;;;2.00;1.90;;;;;;;6.15;66.36;101366.66;6264412;28;20185;-71
2021/05/03 02:13:38;;;;;;;1.83;1.73;;;;;;;6.14;65.12;101343.28;6246413;28;20359;-72
2021/05/03 02:16:42;;;;;;;5.37;2.00;;;;;;;6.32;65.31;101368.25;6264520;28;20287;-71
2021/05/03 02:19:45;;;;;;;2.33;1.80;;;;;;;6.37;64.87;101361.47;6264141;28;20192;-72
2021/05/03 02:22:50;;;;;;;3.47;1.97;;;;;;;6.15;65.71;101355.81;6264175;28;20188;-72
2021/05/03 02:25:53;;;;;;;6.57;1.80;;;;;;;6.28;65.26;101366.94;6263070;28;20474;-72
2021/05/03 02:28:56;;;;;;;1.93;1.73;;;;;;;6.34;64.86;101364.53;6263199;28;20360;-73
2021/05/03 02:32:00;;;;;;;4.10;2.00;;;;;;;6.28;65.24;101366.94;6263550;28;20287;-72
2021/05/03 02:35:04;;;;;;;12.27;2.57;;;;;;;5.97;66.22;101359.78;6263778;28;20216;-72
2021/05/03 02:38:10;;;;;;;4.10;1.73;;;;;;;5.68;67.74;101363.88;6263770;28;20249;-72
2021/05/03 02:41:13;;;;;;;11.90;2.20;;;;;;;5.97;66.39;101357.91;6262690;28;20411;-72
2021/05/03 02:44:16;;;;;;;3.63;2.00;;;;;;;6.10;66.40;101360.91;6263569;28;20227;-72
2021/05/03 02:47:19;;;;;;;2.30;1.77;;;;;;;5.94;66.12;101331.16;6262614;28;20442;-73
2021/05/03 02:50:25;;;;;;;6.83;1.70;;;;;;;6.08;65.78;101345.84;6262445;28;20376;-73
2021/05/03 02:53:28;;;;;;;1.80;1.80;;;;;;;6.08;65.91;101348.56;6262339;28;20187;-72
2021/05/03 02:56:32;;;;;;;4.73;1.80;;;;;;;6.10;66.12;101347.38;6262502;28;20218;-72
2021/05/03 02:59:35;;;;;;;2.63;1.90;;;;;;;5.89;66.95;101344.41;6263461;28;20188;-72
2021/05/03 03:02:38;;;;;;;3.13;2.20;;;;;;;5.89;67.40;101349.81;6262439;28;20266;-73
2021/05/03 03:05:41;;;;;;;8.60;2.23;;;;;;;5.94;66.40;101347.41;6262061;28;20230;-73
2021/05/03 03:08:45;;;;;;;8.00;2.33;;;;;;;5.91;66.46;101336.94;6262533;28;20195;-73
2021/05/03 03:11:48;;;;;;;10.47;2.30;;;;;;;5.95;66.83;101341.00;6244175;28;20270;-73
2021/05/03 03:14:51;;;;;;;4.97;2.37;;;;;;;5.79;67.41;101338.31;6263197;28;20243;-72
2021/05/03 03:17:54;;;;;;;2.13;2.00;;;;;;;5.69;68.16;101332.25;6262049;28;20533;-72
2021/05/03 03:20:58;;;;;;;5.33;1.93;;;;;;;5.78;68.93;101336.59;6261897;28;20534;-72
2021/05/03 03:24:03;;;;;;;6.90;2.23;;;;;;;5.81;68.18;101330.84;6244701;28;20203;-72
2021/05/03 03:27:06;;;;;;;5.07;2.20;;;;;;;5.65;69.37;101330.88;6263050;28;20234;-72
2021/05/03 03:30:13;;;;;;;6.40;2.07;;;;;;;5.93;67.86;101324.06;6262590;28;20226;-72
2021/05/03 03:33:17;;;;;;;3.57;2.10;;;;;;;6.08;67.27;101322.31;6262944;28;20195;-72
2021/05/03 03:36:20;;;;;;;7.47;2.33;;;;;;;6.19;66.27;101330.03;6261437;28;20243;-73
2021/05/03 03:39:24;;;;;;;13.17;2.27;;;;;;;6.09;66.09;101328.56;6261449;28;20428;-71
2021/05/03 03:42:27;;;;;;;6.67;2.27;;;;;;;6.04;67.17;101320.13;6261362;28;20186;-72
2021/05/03 03:45:30;;;;;;;3.37;2.20;;;;;;;6.09;67.55;101313.16;6262339;28;20191;-71
2021/05/03 03:48:34;;;;;;;7.73;2.73;;;;;;;6.00;67.50;101319.66;6244113;28;20211;-71
2021/05/03 03:51:37;;;;;;;22.03;2.60;;;;;;;6.10;66.91;101323.00;6262426;28;20306;-72
2021/05/03 03:54:41;;;;;;;4.43;1.80;;;;;;;5.79;69.38;101316.63;6261506;28;20435;-72
2021/05/03 03:57:45;;;;;;;3.03;1.73;;;;;;;5.76;69.84;101310.72;6261953;28;20353;-72
2021/05/03 04:00:48;;;;;;;7.97;1.90;;;;;;;5.73;69.34;101311.09;6262169;28;20253;-72
2021/05/03 04:03:54;;;;;;;3.20;1.80;;;;;;;5.61;70.27;101307.91;6261781;28;20238;-72
2021/05/03 04:07:02;;;;;;;2.00;1.80;;;;;;;5.67;70.39;101312.63;6262179;28;20191;-72
2021/05/03 04:10:17;;;;;;;2.73;1.80;;;;;;;5.85;69.56;101305.16;6261411;28;20191;-72
2021/05/03 04:13:35;;;;;;;3.03;1.93;;;;;;;6.00;68.98;101307.97;6262320;28;20188;-72
2021/05/03 04:26:51;;;;;;;2.40;1.70;;;;;;;5.53;72.77;101306.06;6242478;28;20204;-71
2021/05/03 04:29:54;;;;;;;1.97;1.87;;;;;;;5.76;72.09;101298.03;6266627;28;20195;-72
2021/05/03 04:32:57;;;;;;;1.80;1.80;;;;;;;6.07;70.15;101298.94;6265619;28;20525;-72
2021/05/03 04:36:01;;;;;;;3.20;2.00;;;;;;;6.19;69.61;101308.38;6266724;28;20283;-72
2021/05/03 04:39:04;;;;;;;1.70;1.60;;;;;;;5.54;72.32;101301.50;6266734;28;20184;-72
2021/05/03 04:42:09;;;;;;;2.20;2.10;;;;;;;5.58;72.44;101300.97;6265394;28;20229;-72
2021/05/03 04:45:13;;;;;;;2.00;1.90;;;;;;;5.55;72.26;101297.75;6265287;28;20385;-72
2021/05/03 04:48:17;;;;;;;5.67;2.00;;;;;;;5.78;70.92;101287.88;6265393;28;20383;-71
2021/05/03 04:51:21;;;;;;;9.83;2.10;;;;;;;6.04;70.41;101288.47;6266572;28;20188;-73
2021/05/03 04:54:24;;;;;;;4.20;2.03;;;;;;;6.32;68.90;101284.25;6266645;28;20225;-72
2021/05/03 04:57:28;;;;;;;3.03;1.90;;;;;;;6.49;67.91;101287.72;6264938;28;20212;-72
2021/05/03 05:00:31;;;;;;;5.37;2.00;;;;;;;6.62;67.35;101281.69;6264972;28;20185;-72
2021/05/03 05:03:35;;;;;;;2.77;2.27;;;;;;;6.59;66.99;101284.75;6264794;28;20281;-71
2021/05/03 05:06:39;;;;;;;9.67;2.00;;;;;;;6.75;66.72;101284.66;6265666;28;20192;-72
2021/05/03 05:09:42;;;;;;;3.23;2.00;;;;;;;6.80;66.01;101284.94;6264729;28;20192;-72
2021/05/03 05:12:46;;;;;;;7.30;2.10;;;;;;;6.82;65.53;101288.31;6265446;28;20263;-72
2021/05/03 05:15:49;;;;;;;17.70;2.40;;;;;;;6.79;65.40;101291.38;6265425;28;20215;-72
2021/05/03 05:18:52;;;;;;;5.73;2.50;;;;;;;6.73;65.36;101301.09;6265526;28;20185;-72
2021/05/03 05:21:55;;;;;;;6.33;2.03;;;;;;;6.59;65.52;101295.59;6264430;28;20403;-72
2021/05/03 05:25:00;;;;;;;3.80;1.70;;;;;;;6.52;65.59;101283.78;6264331;28;20211;-72
2021/05/03 05:28:04;;;;;;;2.20;1.80;;;;;;;6.46;64.55;101287.22;6264111;28;20412;-72
2021/05/03 05:31:08;;;;;;;2.83;1.80;;;;;;;6.61;63.59;101296.25;6265448;28;20219;-72
2021/05/03 05:34:11;;;;;;;2.00;1.90;;;;;;;6.76;60.57;101289.03;6265332;28;20194;-73
2021/05/03 05:37:15;;;;;;;6.30;2.30;;;;;;;7.01;59.58;101293.22;6263951;28;20503;-72
2021/05/03 05:40:18;;;;;;;;;;;;;;;7.12;57.66;101290.06;6265430;28;20090;-73
2021/05/03 05:43:22;;;;;;;;;;;;;;;7.35;57.65;101280.00;6265608;28;19917;-73
2021/05/03 05:46:24;;;;;;;;;;;;;;;7.39;56.50;101275.91;6264010;28;25089;-73
2021/05/03 05:49:27;;;;;;;;;;;;;;;7.49;55.71;101279.19;6265261;28;19959;-72
2021/05/03 05:52:30;;;;;;;;;;;;;;;7.65;55.71;101280.03;6265434;28;19967;-71
2021/05/03 05:55:33;;;;;;;;;;;;;;;7.77;52.82;101264.94;6263682;28;19928;-72
2021/05/03 05:58:37;;;;;;;16.93;2.30;;;;;;;8.00;51.48;101268.41;6263367;28;20328;-73
2021/05/03 06:01:40;;;;;;;10.47;2.60;;;;;;;7.99;52.23;101272.13;6246075;28;20207;-72
2021/05/03 06:04:44;;;;;;;;;;;;;;;7.97;51.71;101268.78;6262826;28;20300;-72
2021/05/03 06:07:47;;;;;;;9.93;2.30;;;;;;;7.92;49.25;101265.78;6263594;28;19944;-71
2021/05/03 06:10:50;;;;;;;11.52;2.22;;;;;;;7.97;50.64;101271.47;6263068;28;20468;-72
2021/05/03 06:13:53;;;;;;;;;;;;;;;8.14;48.64;101267.50;6263895;28;20046;-72
2021/05/03 06:16:56;;;;;;;;;;;;;;;8.24;47.57;101261.78;6264806;28;19917;-72
2021/05/03 06:19:59;;;;;;;4.57;1.60;;;;;;;8.23;46.80;101258.22;6264305;28;19917;-72
2021/05/03 06:23:06;;;;;;;4.20;1.80;;;;;;;8.28;44.81;101255.81;6263866;28;20185;-71
2021/05/03 06:26:11;;;;;;;;;;;;;;;8.34;42.97;101252.31;6263985;28;19979;-73
2021/05/03 06:29:15;;;;;;;;;;;;;;;8.42;43.24;101252.22;6264646;28;19928;-73
2021/05/03 06:32:18;;;;;;;;;;;;;;;8.46;41.66;101248.06;6263553;28;20337;-73
2021/05/03 06:35:24;;;;;;;7.35;1.55;;;;;;;8.27;41.93;101188.88;6263787;28;20238;-72
2021/05/03 06:38:27;;;;;;;;;;;;;;;8.83;40.63;101255.94;6264508;28;20046;-72
2021/05/03 06:41:29;;;;;;;;;;;;;;;8.81;41.55;101251.72;6262881;28;20214;-72
2021/05/03 06:44:34;;;;;;;1.42;1.35;;;;;;;8.89;40.13;101253.47;6263583;28;20192;-73
2021/05/03 06:47:39;;;;;;;2.67;1.33;;;;;;;9.00;41.55;101252.94;6263558;28;20112;-72
2021/05/03 06:50:45;;;;;;;4.15;1.35;;;;;;;8.80;37.84;101244.63;6263985;28;20073;-73
2021/05/03 06:53:48;;;;;;;3.30;1.38;;;;;;;8.85;39.84;101257.63;6263345;28;20185;-72
2021/05/03 06:56:51;;;;;;;1.85;1.30;;;;;;;8.83;38.72;101253.22;6263959;28;19988;-73
2021/05/03 06:59:55;;;;;;;1.20;1.20;;;;;;;8.75;37.72;101247.94;6262901;28;20191;-73
2021/05/03 07:02:58;;;;;;;2.28;1.33;;;;;;;8.85;38.54;101241.31;6262252;28;20531;-73
2021/05/03 07:06:01;;;;;;;2.60;1.25;;;;;;;9.02;39.26;101242.72;6263079;28;20189;-73
2021/05/03 07:09:09;;;;;;;1.60;1.20;;;;;;;8.96;39.00;101238.06;6263164;28;20105;-73
2021/05/03 07:12:13;;;;;;;3.83;1.30;;;;;;;9.16;39.21;101230.91;6263334;28;20171;-72
2021/05/03 07:15:18;;;;;;;1.38;1.38;;;;;;;9.20;39.13;101230.28;6263092;28;20224;-73
2021/05/03 07:18:21;;;;;;;1.48;1.27;;;;;;;9.27;39.10;101235.81;6261756;28;20382;-72
2021/05/03 07:21:24;;;;;;;;;;;;;;;9.41;39.27;101232.13;6263250;28;20216;-72
2021/05/03 07:24:27;;;;;;;1.20;1.20;;;;;;;9.40;39.73;101235.88;6262183;28;20233;-73
2021/05/03 07:27:30;;;;;;;;;;;;;;;9.26;38.69;101225.94;6263087;28;19960;-73
2021/05/03 07:30:34;;;;;;;;;;;;;;;9.28;39.87;101230.16;6263118;28;19928;-72
2021/05/03 07:33:37;;;;;;;;;;;;;;;9.41;40.10;101226.66;6245392;28;19959;-73
2021/05/03 07:36:39;;;;;;;;;;;;;;;9.42;39.26;101228.34;6263114;28;19980;-72
2021/05/03 07:39:43;;;;;;;;;;;;;;;9.54;39.73;101226.75;6262964;28;19980;-73
2021/05/03 07:42:46;;;;;;;1.30;1.30;;;;;;;9.52;39.21;101223.38;6261707;28;20059;-72
2021/05/03 07:45:51;;;;;;;1.52;1.17;;;;;;;9.53;39.92;101225.06;6262125;28;20184;-73
2021/05/03 07:48:56;;;;;;;1.45;1.10;;;;;;;9.50;38.43;101230.91;6261471;28;20359;-73
2021/05/03 07:51:59;;;;;;;;;;;;;;;9.44;38.28;101227.13;6262309;28;20252;-73
2021/05/03 07:55:02;;;;;;;;;;;;;;;9.55;38.96;101227.59;6261765;28;20225;-73
2021/05/03 07:58:07;;;;;;;;;;;;;;;9.62;38.97;101223.00;6262870;28;19917;-73
2021/05/03 08:01:19;;;;;;;;;;;;;;;9.62;39.13;101218.41;6266991;28;19962;-73
2021/05/03 08:04:23;;;;;;;;;;;;;;;9.49;38.51;101223.78;6267150;28;19971;-73
2021/05/03 08:07:26;;;;;;;;;;;;;;;9.46;39.52;101213.28;6268181;28;19917;-73
2021/05/03 08:10:29;;;;;;;;;;;;;;;9.57;39.35;101215.44;6268082;28;19917;-73
2021/05/03 08:13:31;;;;;;;;;;;;;;;9.63;38.48;101214.63;6267812;28;19917;-73
2021/05/03 08:16:37;;;;;;;;;;;;;;;9.73;38.80;101206.91;6266570;28;19970;-72
2021/05/03 08:19:40;;;;;;;;;;;;;;;9.81;38.40;101206.75;6267234;28;19924;-71
2021/05/03 08:22:43;;;;;;;;;;;;;;;9.96;38.29;101206.63;6266240;28;19974;-72
2021/05/03 08:25:47;;;;;;;;;;;;;;;9.90;37.91;101205.56;6267200;28;19923;-72
2021/05/03 08:28:50;;;;;;;;;;;;;;;9.87;37.94;101199.66;6267497;28;19988;-72
2021/05/03 08:31:56;;;;;;;;;;;;;;;9.84;38.24;101198.19;6266539;28;20115;-73
2021/05/03 08:34:58;;;;;;;;;;;;;;;9.91;37.82;101207.22;6267207;28;19980;-72
2021/05/03 08:38:02;;;;;;;;;;;;;;;9.83;37.54;101204.69;6266412;28;20112;-72
2021/05/03 08:41:05;;;;;;;;;;;;;;;9.89;37.84;101198.41;6266887;28;19932;-72
2021/05/03 08:44:08;;;;;;;1.45;1.45;;;;;;;9.80;36.86;101198.78;6265804;28;19917;-72
2021/05/03 08:47:12;;;;;;;3.50;1.40;;;;;;;9.80;36.52;101196.91;6266584;28;20188;-73
2021/05/03 08:50:18;;;;;;;;;;;;;;;9.68;36.92;101190.34;6266546;28;20415;-73
2021/05/03 08:53:26;;;;;;;;;;;;;;;9.93;37.22;101196.97;6266570;28;19921;-73
2021/05/03 08:56:29;;;;;;;;;;;;;;;9.95;36.34;101203.06;6266276;28;19916;-73
2021/05/03 08:59:35;;;;;;;;;;;;;;;9.89;36.74;101203.84;6266022;28;19921;-73
2021/05/03 09:02:39;;;;;;;;;;;;;;;9.78;36.21;101201.72;6265981;28;20230;-72
2021/05/03 09:05:43;;;;;;;;;;;;;;;9.96;36.12;101193.00;6266743;28;19917;-73
2021/05/03 09:08:46;;;;;;;;;;;;;;;10.25;36.73;101203.59;6266588;28;19952;-73
2021/05/03 09:11:57;;;;;;;;;;;;;;;10.38;37.33;101180.94;6264813;28;19952;-73
2021/05/03 09:15:02;;;;;;;4.65;1.20;;;;;;;10.50;35.86;101184.75;6264937;28;20172;-73
2021/05/03 09:18:14;;;;;;;4.25;1.35;;;;;;;10.58;35.14;101188.13;6265878;28;20220;-73
2021/05/03 09:21:21;;;;;;;2.72;1.27;;;;;;;10.42;35.25;101182.22;6265733;28;20248;-73
2021/05/03 09:24:27;;;;;;;2.58;1.10;;;;;;;10.43;36.32;101164.81;6265776;28;20189;-73
2021/05/03 09:27:30;;;;;;;7.50;2.15;;;;;;;10.59;36.38;101178.03;6265614;28;20195;-73
2021/05/03 09:30:37;;;;;;;1.83;1.73;;;;;;;10.74;35.77;101184.13;6264876;28;20216;-72
2021/05/03 09:33:41;;;;;;;1.38;1.38;;;;;;;10.73;35.81;101171.56;6264181;28;20332;-72
2021/05/03 09:36:44;;;;;;;2.28;1.63;;;;;;;10.61;35.38;101165.03;6264100;28;20463;-72
2021/05/03 09:39:55;;;;;;;3.20;1.50;;;;;;;10.73;35.63;101166.09;6265398;28;20191;-73
2021/05/03 09:42:58;;;;;;;1.35;1.20;;;;;;;10.73;35.89;101179.75;6264433;28;20185;-73
2021/05/03 09:46:19;;;;;;;2.72;1.30;;;;;;;10.66;34.90;101167.97;6265301;28;20230;-72
2021/05/03 09:49:23;;;;;;;5.47;1.50;;;;;;;10.57;35.42;101161.06;6263968;28;20246;-72
2021/05/03 09:52:26;;;;;;;5.38;1.63;;;;;;;10.59;34.99;101158.94;6265243;28;20271;-73
2021/05/03 09:55:39;;;;;;;1.30;1.30;;;;;;;10.60;35.73;101153.28;6263625;28;20483;-72
2021/05/03 09:58:42;;;;;;;1.48;1.48;;;;;;;10.62;35.28;101153.06;6264066;28;20455;-72
2021/05/03 10:01:59;;;;;;;3.05;1.30;;;;;;;10.72;35.41;101145.31;6263846;28;20201;-73
2021/05/03 10:05:08;;;;;;;1.35;1.35;;;;;;;10.67;34.69;101143.22;6263320;28;20351;-72
2021/05/03 10:08:12;;;;;;;3.42;1.42;;;;;;;10.72;35.21;101134.38;6263230;28;20496;-72
2021/05/03 10:11:16;;;;;;;1.38;1.38;;;;;;;10.89;35.10;101130.16;6263213;28;20185;-72
2021/05/03 10:14:20;;;;;;;1.90;1.65;;;;;;;10.81;35.00;101116.72;6264627;28;20192;-72
2021/05/03 10:17:23;;;;;;;1.60;1.50;;;;;;;10.96;34.99;101131.03;6263006;28;20530;-73
2021/05/03 10:20:28;;;;;;;1.40;1.40;;;;;;;10.73;34.00;101133.34;6264105;28;20184;-72
2021/05/03 10:23:31;;;;;;;2.17;1.30;;;;;;;10.76;34.63;101122.00;6263327;28;20258;-72
2021/05/03 10:26:35;;;;;;;2.95;1.52;;;;;;;10.96;34.89;101120.09;6262786;28;20184;-72
2021/05/03 10:29:41;;;;;;;1.73;1.60;;;;;;;10.96;34.92;101120.09;6263758;28;20185;-72
2021/05/03 10:32:58;;;;;;;2.15;2.05;;;;;;;11.00;35.02;101110.41;6263346;28;20185;-72
2021/05/03 10:36:04;;;;;;;1.90;1.55;;;;;;;10.92;34.66;101113.38;6262598;28;20416;-72
2021/05/03 10:39:46;;;;;;;4.55;1.55;;;;;;;10.94;34.20;101111.25;6263524;28;20280;-73
2021/05/03 10:43:12;;;;;;;3.08;1.50;;;;;;;11.12;34.46;101103.25;6235849;28;20207;-72
2021/05/03 10:50:05;;;;;;;9.35;2.03;;;;;;;11.35;34.76;101107.41;6263336;28;20228;-72
2021/05/03 10:53:32;;;;;;;3.42;2.10;;;;;;;11.48;34.30;101088.22;6262703;28;20189;-72
2021/05/03 10:56:39;;;;;;;5.28;2.20;;;;;;;11.58;33.64;101097.59;6262961;28;20184;-72
2021/05/03 10:59:45;;;;;;;8.60;2.10;;;;;;;11.60;33.49;101083.75;6263361;28;20231;-73
2021/05/03 11:02:48;;;;;;;1.98;1.80;;;;;;;11.73;33.27;101089.19;6262061;28;20200;-72
2021/05/03 11:05:51;;;;;;;2.58;2.00;;;;;;;11.88;33.99;101076.91;6263457;28;20195;-73
2021/05/03 11:09:28;;;;;;;1.60;1.60;;;;;;;12.02;33.30;101083.09;6263066;28;20189;-71
2021/05/03 11:12:32;;;;;;;2.92;1.52;;;;;;;12.07;32.43;101077.81;6263173;28;20192;-73
2021/05/03 11:15:37;;;;;;;4.20;1.70;;;;;;;12.12;32.95;101075.25;6262958;28;20185;-72
2021/05/03 11:18:41;;;;;;;1.58;1.40;;;;;;;11.99;32.71;101078.09;6262826;28;20255;-73
2021/05/03 11:21:46;;;;;;;3.65;3.35;;;;;;;12.12;33.35;101077.97;6262696;28;20185;-72
2021/05/03 11:24:54;;;;;;;1.75;1.50;;;;;;;12.08;33.00;101068.56;6262771;28;20185;-72
2021/05/03 11:28:04;;;;;;;1.50;1.50;;;;;;;12.03;33.04;101068.38;6263113;28;20188;-72
2021/05/03 11:31:13;;;;;;;1.30;1.30;;;;;;;11.97;32.98;101077.44;6261637;28;20551;-71
2021/05/03 11:34:20;;;;;;;1.25;1.25;;;;;;;11.95;33.06;101076.84;6261442;28;20531;-72
2021/05/03 11:37:33;;;;;;;6.10;1.75;;;;;;;12.00;32.80;101068.81;6262285;28;20213;-72
2021/05/03 11:40:55;;;;;;;1.23;1.23;;;;;;;12.19;33.01;101062.38;6262382;28;20185;-73
2021/05/03 11:44:11;;;;;;;2.67;1.58;;;;;;;12.01;33.83;101059.56;6261350;28;20383;-72
2021/05/03 11:47:15;;;;;;;6.13;1.20;;;;;;;12.17;33.26;101064.47;6261352;28;20431;-72
2021/05/03 11:50:20;;;;;;;5.68;1.65;;;;;;;12.21;32.68;101054.78;6261239;28;20468;-72
2021/05/03 11:53:35;;;;;;;7.68;1.50;;;;;;;12.19;33.70;101051.44;6262344;28;20185;-72
2021/05/03 11:56:38;;;;;;;5.53;2.05;;;;;;;12.15;32.50;101044.72;6261165;28;20476;-72
2021/05/03 11:59:46;;;;;;;1.67;1.42;;;;;;;12.18;32.28;101051.63;6262394;28;20231;-72
2021/05/03 12:03:02;;;;;;;1.85;1.38;;;;;;;12.12;33.09;101034.22;6261733;28;20445;-74
2021/05/03 12:06:05;;;;;;;2.95;1.23;;;;;;;12.28;33.09;101047.34;6262395;28;20186;-73
2021/05/03 12:09:11;;;;;;;3.28;1.35;;;;;;;12.42;32.25;101040.72;6260809;28;20484;-74
2021/05/03 12:12:33;;;;;;;1.40;1.40;;;;;;;12.39;33.00;101045.78;6262049;28;20256;-73
2021/05/03 12:15:37;;;;;;;3.13;1.60;;;;;;;12.51;32.49;101035.78;6260695;28;20188;-74
2021/05/03 12:18:43;;;;;;;1.80;1.70;;;;;;;12.50;32.37;101032.22;6261867;28;20220;-73
2021/05/03 12:21:59;;;;;;;2.00;1.60;;;;;;;12.46;32.68;101028.25;6261075;28;20480;-73
2021/05/03 12:25:05;;;;;;;6.18;1.40;;;;;;;12.61;32.63;101027.06;6261746;28;20192;-72
2021/05/03 12:28:11;;;;;;;1.45;1.30;;;;;;;12.62;32.58;101034.22;6262104;28;20189;-72
2021/05/03 12:31:16;;;;;;;3.08;1.40;;;;;;;12.53;32.17;101042.69;6260887;28;20185;-73
2021/05/03 12:34:21;;;;;;;1.50;1.40;;;;;;;12.61;32.19;101035.28;6262206;28;20195;-72
2021/05/03 12:37:29;;;;;;;2.47;1.50;;;;;;;12.76;32.37;101041.22;6261895;28;20239;-72
2021/05/03 12:40:34;;;;;;;;;;;;;;;12.64;32.61;101038.38;6262003;28;20056;-73
2021/05/03 12:43:39;;;;;;;;;;;;;;;12.80;32.76;101031.50;6261558;28;19971;-73
2021/05/03 12:46:43;;;;;;;;;;;;;;;12.79;31.77;101025.19;6265687;28;19924;-73
2021/05/03 12:49:53;;;;;;;;;;;;;;;12.82;32.12;101029.34;6267420;28;19998;-73
2021/05/03 12:53:03;;;;;;;;;;;;;;;12.72;32.11;101023.56;6267111;28;19980;-72
2021/05/03 12:56:16;;;;;;;;;;;;;;;12.78;31.87;101015.31;6266755;28;19928;-73
2021/05/03 12:59:23;;;;;;;;;;;;;;;12.88;32.07;101022.97;6266650;28;19968;-74
2021/05/03 13:02:31;;;;;;;;;;;;;;;12.75;31.54;101023.13;6266011;28;19979;-72
2021/05/03 13:05:38;;;;;;;;;;;;;;;12.80;32.55;101009.59;6248478;28;20103;-73
2021/05/03 13:09:00;;;;;;;;;;;;;;;12.99;31.19;101019.50;6266647;28;19917;-73
2021/05/03 13:23:12;;;;;;;;;;;;;;;12.85;31.91;101017.97;6266248;28;19917;-73
2021/05/03 13:29:41;;;;;;;;;;;;;;;12.87;31.23;101007.59;6266054;28;19948;-73
2021/05/03 13:32:44;;;;;;;;;;;;;;;12.76;31.26;101013.84;6266146;28;19996;-73
2021/05/03 13:35:47;;;;;;;;;;;;;;;12.62;31.64;101012.31;6264683;28;20115;-73
2021/05/03 13:38:51;;;;;;;;;;;;;;;12.35;31.59;101007.09;6265467;28;19963;-73
2021/05/03 13:41:54;;;;;;;;;;;;;;;12.63;32.06;101003.88;6266034;28;19917;-72
2021/05/03 13:44:57;;;;;;;;;;;;;;;12.46;32.37;101006.34;6265886;28;19956;-73
2021/05/03 13:48:00;;;;;;;;;;;;;;;12.54;32.23;101010.69;6265104;28;20212;-72
2021/05/03 13:51:03;;;;;;;;;;;;;;;12.60;31.97;101006.22;6265185;28;19924;-73
2021/05/03 13:54:31;;;;;;;;;;;;;;;12.59;32.08;101005.38;6264141;28;19924;-72
2021/05/03 13:57:34;;;;;;;;;;;;;;;12.69;32.43;101002.13;6262646;28;19916;-72
2021/05/03 14:00:38;;;;;;;;;;;;;;;12.71;33.00;100995.34;6264039;28;20112;-72
2021/05/03 14:03:42;;;;;;;;;;;;;;;12.80;32.05;100993.16;6264511;28;19924;-72
2021/05/03 14:06:47;;;;;;;;;;;;;;;12.95;31.97;100990.88;6264731;28;19920;-73
2021/05/03 14:09:50;;;;;;;;;;;;;;;12.85;32.13;100990.56;6265162;28;19917;-73
2021/05/03 14:12:53;;;;;;;;;;;;;;;12.90;32.10;100982.50;6264650;28;19921;-74
2021/05/03 14:16:02;;;;;;;;;;;;;;;12.94;32.78;100978.28;6265008;28;19917;-73
2021/05/03 14:19:08;;;;;;;;;;;;;;;12.97;33.08;100972.31;6263969;28;19959;-73
2021/05/03 14:22:11;;;;;;;;;;;;;;;12.91;33.49;100974.09;6263394;28;19976;-73
2021/05/03 14:25:16;;;;;;;7.78;1.65;;;;;;;12.87;32.07;100966.53;6263304;28;20192;-73
2021/05/03 14:28:23;;;;;;;4.60;1.30;;;;;;;12.91;32.43;100959.56;6263572;28;20189;-73
2021/05/03 14:31:29;;;;;;;1.15;1.15;;;;;;;12.93;31.86;100969.22;6263677;28;20223;-72
2021/05/03 14:34:34;;;;;;;1.30;1.30;;;;;;;13.07;32.24;100956.22;6245943;28;20204;-72
2021/05/03 14:37:37;;;;;;;4.50;1.58;;;;;;;13.23;31.67;100957.47;6263505;28;20192;-72
2021/05/03 14:40:42;;;;;;;1.35;1.30;;;;;;;13.23;31.52;100954.72;6263744;28;20185;-72
2021/05/03 14:43:48;;;;;;;3.65;1.13;;;;;;;13.22;31.52;100959.41;6263409;28;20185;-73
2021/05/03 14:46:54;;;;;;;1.10;1.10;;;;;;;13.04;31.60;100956.66;6263855;28;20192;-73
2021/05/03 14:50:05;;;;;;;7.35;1.48;;;;;;;13.33;32.16;100955.84;6262464;28;20189;-73
2021/05/03 14:53:33;;;;;;;9.07;1.40;;;;;;;13.25;32.29;100958.09;6263625;28;20195;-73
2021/05/03 14:56:38;;;;;;;1.10;1.10;;;;;;;13.43;31.36;100961.59;6262259;28;20248;-73
2021/05/03 14:59:41;;;;;;;8.07;1.30;;;;;;;13.28;31.27;100958.44;6261978;28;20515;-73
2021/05/03 15:02:45;;;;;;;1.10;1.10;;;;;;;13.29;31.25;100960.13;6244588;28;20204;-73
2021/05/03 15:05:52;;;;;;;;;;;;;;;13.37;32.34;100951.59;6262529;28;20228;-73
2021/05/03 15:08:54;;;;;;;;;;;;;;;13.31;31.42;100957.16;6263463;28;19917;-72
2021/05/03 15:12:00;;;;;;;;;;;;;;;13.09;31.34;100954.09;6262420;28;20157;-73
2021/05/03 15:15:07;;;;;;;;;;;;;;;12.97;31.12;100950.41;6263343;28;19917;-73
2021/05/03 15:21:37;;;;;;;;;;;;;;;12.69;32.20;100958.31;6262358;28;20107;-72
2021/05/03 15:24:39;;;;;;;;;;;;;;;12.78;32.28;100962.44;6263116;28;19917;-72
2021/05/03 15:27:46;;;;;;;;;;;;;;;12.89;31.76;100954.28;6262991;28;19917;-74
2021/05/03 15:31:02;;;;;;;3.30;1.20;;;;;;;12.97;32.15;100950.41;6261255;28;19924;-73
2021/05/03 15:34:05;;;;;;;0.93;0.90;;;;;;;12.65;32.83;100948.91;6261488;28;20523;-72